createdAt,value
2018-11-02T00:01:36.150Z,3.40
2018-11-02T00:04:05.708Z,3.00
2018-11-02T00:06:35.172Z,1.50
2018-11-02T00:09:04.821Z,4.40
2018-11-02T00:11:34.244Z,15.50
2018-11-02T00:14:03.691Z,25.90
2018-11-02T00:16:33.249Z,18.27
2018-11-02T00:19:02.490Z,8.80
2018-11-02T00:21:31.847Z,10.10
2018-11-02T00:24:01.257Z,9.60
2018-11-02T00:26:30.710Z,30.07
2018-11-02T00:29:01.160Z,22.00
2018-11-02T00:31:31.256Z,10.17
2018-11-02T00:34:01.501Z,13.87
2018-11-02T00:36:31.067Z,5.23
2018-11-02T00:39:00.408Z,2.30
2018-11-02T00:41:29.794Z,2.87
2018-11-02T00:43:59.468Z,6.80
2018-11-02T00:46:28.813Z,6.87
2018-11-02T00:48:58.400Z,8.90
2018-11-02T00:51:27.896Z,14.30
2018-11-02T00:53:57.270Z,15.23
2018-11-02T00:56:28.151Z,13.90
2018-11-02T00:58:57.791Z,8.73
2018-11-02T01:01:27.233Z,7.63
2018-11-02T01:03:56.578Z,8.27
2018-11-02T01:06:26.024Z,6.10
2018-11-02T01:08:55.500Z,18.47
2018-11-02T01:11:24.924Z,30.37
2018-11-02T01:13:54.278Z,26.63
2018-11-02T01:16:23.522Z,18.00
2018-11-02T01:18:53.010Z,14.87
2018-11-02T01:21:22.459Z,14.10
2018-11-02T01:23:51.809Z,10.70
2018-11-02T01:26:21.218Z,9.77
2018-11-02T01:28:50.653Z,7.00
2018-11-02T01:31:20.027Z,7.23
2018-11-02T01:33:49.719Z,14.60
2018-11-02T01:36:19.565Z,14.70
2018-11-02T01:38:49.048Z,11.20
2018-11-02T01:41:18.509Z,9.17
2018-11-02T01:43:48.446Z,3.40
2018-11-02T01:46:17.756Z,2.67
2018-11-02T01:48:47.133Z,2.80
2018-11-02T01:51:16.617Z,2.50
2018-11-02T01:53:46.044Z,2.03
2018-11-02T01:56:15.709Z,2.43
2018-11-02T01:58:45.049Z,2.70
2018-11-02T02:01:14.547Z,4.20
2018-11-02T02:03:44.072Z,3.87
2018-11-02T02:06:13.537Z,4.50
2018-11-02T02:08:43.113Z,5.40
2018-11-02T02:11:12.454Z,7.57
2018-11-02T02:13:41.807Z,5.67
2018-11-02T02:16:11.286Z,7.33
2018-11-02T02:18:40.598Z,6.77
2018-11-02T02:21:09.913Z,5.80
2018-11-02T02:23:39.391Z,6.70
2018-11-02T02:26:08.791Z,4.93
2018-11-02T02:28:38.801Z,4.13
2018-11-02T02:31:08.229Z,4.17
2018-11-02T02:33:37.642Z,4.60
2018-11-02T02:36:07.220Z,2.67
2018-11-02T02:38:36.667Z,3.17
2018-11-02T02:41:06.224Z,2.40
2018-11-02T02:43:35.645Z,1.57
2018-11-02T02:46:05.255Z,1.70
2018-11-02T02:48:35.112Z,1.93
2018-11-02T02:51:04.510Z,1.50
2018-11-02T02:53:33.986Z,1.77
2018-11-02T02:56:03.374Z,2.37
2018-11-02T02:58:32.682Z,1.77
2018-11-02T03:01:02.024Z,1.73
2018-11-02T03:03:31.289Z,2.90
2018-11-02T03:06:00.883Z,3.80
2018-11-02T03:08:30.172Z,2.97
2018-11-02T03:10:59.546Z,2.53
2018-11-02T03:13:28.828Z,1.77
2018-11-02T03:15:58.202Z,2.13
2018-11-02T03:18:27.596Z,2.00
2018-11-02T03:20:56.888Z,1.97
2018-11-02T03:23:26.260Z,1.57
2018-11-02T03:25:55.743Z,2.00
2018-11-02T03:28:25.042Z,3.87
2018-11-02T03:30:54.454Z,6.90
2018-11-02T03:33:23.732Z,2.67
2018-11-02T03:35:53.143Z,2.90
2018-11-02T03:38:22.540Z,2.17
2018-11-02T03:40:51.944Z,1.80
2018-11-02T03:43:21.353Z,2.27
2018-11-02T03:45:50.839Z,2.10
2018-11-02T03:48:20.168Z,1.43
2018-11-02T03:50:49.523Z,1.53
2018-11-02T03:53:18.764Z,2.00
2018-11-02T03:55:49.154Z,1.80
2018-11-02T03:58:18.629Z,1.90
2018-11-02T04:00:48.289Z,1.53
2018-11-02T04:03:17.847Z,1.23
2018-11-02T04:05:47.174Z,1.67
2018-11-02T04:08:16.441Z,1.47
2018-11-02T04:10:46.430Z,1.30
2018-11-02T04:13:15.831Z,1.43
2018-11-02T04:15:45.196Z,1.13
2018-11-02T04:18:14.479Z,0.87
2018-11-02T04:20:43.755Z,1.00
2018-11-02T04:23:13.141Z,1.37
2018-11-02T04:25:42.516Z,1.17
2018-11-02T04:28:11.901Z,2.07
2018-11-02T04:30:41.224Z,1.50
2018-11-02T04:33:10.522Z,1.80
2018-11-02T04:35:39.889Z,1.20
2018-11-02T04:38:09.491Z,1.30
2018-11-02T04:40:38.805Z,0.93
2018-11-02T04:43:08.036Z,1.33
2018-11-02T04:45:41.221Z,1.40
2018-11-02T04:48:12.295Z,0.87
2018-11-02T04:50:42.052Z,1.07
2018-11-02T04:53:11.570Z,1.23
2018-11-02T04:55:40.995Z,1.33
2018-11-02T04:58:10.199Z,1.33
2018-11-02T05:00:40.020Z,1.43
2018-11-02T05:03:09.520Z,1.30
2018-11-02T05:05:39.014Z,0.90
2018-11-02T05:08:08.724Z,1.50
2018-11-02T05:10:37.984Z,1.33
2018-11-02T05:13:07.313Z,1.77
2018-11-02T05:15:36.601Z,1.70
2018-11-02T05:18:06.567Z,1.30
2018-11-02T05:20:36.736Z,1.83
2018-11-02T05:23:06.384Z,1.53
2018-11-02T05:25:35.786Z,1.40
2018-11-02T05:28:05.181Z,1.43
2018-11-02T05:30:34.506Z,0.80
2018-11-02T05:33:03.945Z,2.33
2018-11-02T05:35:33.278Z,1.20
2018-11-02T05:38:02.705Z,1.87
2018-11-02T05:40:32.061Z,1.10
2018-11-02T05:43:01.906Z,1.93
2018-11-02T05:45:31.339Z,1.13
2018-11-02T05:48:00.687Z,1.60
2018-11-02T05:50:30.252Z,1.60
2018-11-02T05:52:59.994Z,1.17
2018-11-02T05:55:29.476Z,1.10
2018-11-02T05:57:59.171Z,1.50
2018-11-02T06:00:29.103Z,1.17
2018-11-02T06:02:58.714Z,1.40
2018-11-02T06:05:28.436Z,1.90
2018-11-02T06:07:57.984Z,2.03
2018-11-02T06:10:27.326Z,3.63
2018-11-02T06:12:56.660Z,2.30
2018-11-02T06:15:26.535Z,5.50
2018-11-02T06:17:56.034Z,4.33
2018-11-02T06:20:25.432Z,3.60
2018-11-02T06:22:54.840Z,4.67
2018-11-02T06:25:24.405Z,4.40
2018-11-02T06:27:53.866Z,2.90
2018-11-02T06:30:23.503Z,3.70
2018-11-02T06:32:53.019Z,3.70
2018-11-02T06:35:22.492Z,2.97
2018-11-02T06:37:51.973Z,5.90
2018-11-02T06:40:21.427Z,3.50
2018-11-02T06:42:50.748Z,4.20
2018-11-02T06:45:20.899Z,5.13
2018-11-02T06:47:50.295Z,6.53
2018-11-02T06:50:19.954Z,4.73
2018-11-02T06:52:49.562Z,4.07
2018-11-02T06:55:19.469Z,4.70
2018-11-02T06:57:49.790Z,4.80
2018-11-02T07:00:19.079Z,4.40
2018-11-02T07:02:48.621Z,5.30
2018-11-02T07:05:17.786Z,8.50
2018-11-02T07:07:48.276Z,11.67
2018-11-02T07:10:17.559Z,11.50
2018-11-02T07:12:47.146Z,8.10
2018-11-02T07:15:16.818Z,6.63
2018-11-02T07:17:46.163Z,3.80
2018-11-02T07:20:15.515Z,2.23
2018-11-02T07:22:44.868Z,2.87
2018-11-02T07:25:14.386Z,3.13
2018-11-02T07:27:43.646Z,2.30
2018-11-02T07:30:13.316Z,2.47
2018-11-02T07:32:42.564Z,7.93
2018-11-02T07:35:12.031Z,15.40
2018-11-02T07:37:41.404Z,6.00
2018-11-02T07:40:12.004Z,9.80
2018-11-02T07:42:41.638Z,8.63
2018-11-02T07:45:12.084Z,7.00
2018-11-02T07:47:41.509Z,6.83
2018-11-02T07:50:12.215Z,5.40
2018-11-02T07:52:41.954Z,7.77
2018-11-02T07:55:13.270Z,13.70
2018-11-02T07:57:42.723Z,8.00
2018-11-02T08:00:13.792Z,7.57
2018-11-02T08:02:46.680Z,4.43
2018-11-02T08:05:17.195Z,4.80
2018-11-02T08:07:46.777Z,4.33
2018-11-02T08:10:16.264Z,4.27
2018-11-02T08:12:45.792Z,5.50
2018-11-02T08:15:15.172Z,6.07
2018-11-02T08:17:44.491Z,6.10
2018-11-02T08:20:14.216Z,3.63
2018-11-02T08:22:44.194Z,3.70
2018-11-02T08:25:13.795Z,4.00
2018-11-02T08:27:43.043Z,4.63
2018-11-02T08:30:12.812Z,3.33
2018-11-02T08:32:42.933Z,3.30
2018-11-02T08:35:14.053Z,2.77
2018-11-02T08:37:43.596Z,2.90
2018-11-02T08:40:14.885Z,2.10
2018-11-02T08:42:44.787Z,3.40
2018-11-02T08:45:14.552Z,4.70
2018-11-02T08:47:43.844Z,3.10
2018-11-02T08:50:13.678Z,2.63
2018-11-02T08:52:43.293Z,3.57
2018-11-02T08:55:12.855Z,2.53
2018-11-02T08:57:42.420Z,7.03
2018-11-02T09:00:13.726Z,4.60
2018-11-02T09:02:44.166Z,3.37
2018-11-02T09:05:13.778Z,3.27
2018-11-02T09:07:43.195Z,3.20
2018-11-02T09:10:13.125Z,4.03
2018-11-02T09:12:42.845Z,4.77
2018-11-02T09:15:12.404Z,4.07
2018-11-02T09:17:41.881Z,2.93
2018-11-02T09:20:11.858Z,3.43
2018-11-02T09:22:41.283Z,3.07
2018-11-02T09:25:11.158Z,2.67
2018-11-02T09:27:40.332Z,2.83
2018-11-02T09:30:13.974Z,3.47
2018-11-02T09:32:43.597Z,2.83
2018-11-02T09:35:13.484Z,2.47
2018-11-02T09:37:43.742Z,2.27
2018-11-02T09:40:13.431Z,2.20
2018-11-02T09:42:42.841Z,2.57
2018-11-02T09:45:13.910Z,2.43
2018-11-02T09:47:44.192Z,2.40
2018-11-02T09:50:14.279Z,3.73
2018-11-02T09:52:43.792Z,3.27
2018-11-02T09:55:15.654Z,3.60
2018-11-02T09:57:46.116Z,2.87
2018-11-02T10:00:15.775Z,3.33
2018-11-02T10:02:45.270Z,3.10
2018-11-02T10:05:14.913Z,3.10
2018-11-02T10:07:44.272Z,3.00
2018-11-02T10:10:14.091Z,3.63
2018-11-02T10:12:44.273Z,3.80
2018-11-02T10:15:15.135Z,3.50
2018-11-02T10:17:44.588Z,6.63
2018-11-02T10:20:13.930Z,4.30
2018-11-02T10:22:43.275Z,5.13
2018-11-02T10:25:12.778Z,4.20
2018-11-02T10:27:43.549Z,3.57
2018-11-02T10:30:13.950Z,4.20
2018-11-02T10:32:44.764Z,4.43
2018-11-02T10:35:14.177Z,3.93
2018-11-02T10:37:43.962Z,4.13
2018-11-02T10:40:16.515Z,3.87
2018-11-02T10:42:50.843Z,3.03
2018-11-02T10:45:21.200Z,3.37
2018-11-02T10:47:51.357Z,3.97
2018-11-02T10:50:20.957Z,3.43
2018-11-02T10:52:50.382Z,4.33
2018-11-02T10:55:19.823Z,3.30
2018-11-02T10:57:49.148Z,2.80
2018-11-02T11:00:23.535Z,2.80
2018-11-02T11:02:53.629Z,6.10
2018-11-02T11:05:24.183Z,2.57
2018-11-02T11:07:53.668Z,2.83
2018-11-02T11:10:23.819Z,3.67
2018-11-02T11:12:53.545Z,3.50
2018-11-02T11:15:22.781Z,2.37
2018-11-02T11:17:52.138Z,3.80
2018-11-02T11:20:21.481Z,2.53
2018-11-02T11:22:50.813Z,3.90
2018-11-02T11:25:20.393Z,3.40
2018-11-02T11:27:49.710Z,3.63
2018-11-02T11:30:20.503Z,3.40
2018-11-02T11:32:50.822Z,3.73
2018-11-02T11:35:21.139Z,3.90
2018-11-02T11:37:51.275Z,3.47
2018-11-02T11:40:21.533Z,3.40
2018-11-02T11:42:50.939Z,5.43
2018-11-02T11:45:20.701Z,3.80
2018-11-02T11:47:50.431Z,2.90
2018-11-02T11:50:21.568Z,3.27
2018-11-02T11:52:51.993Z,4.13
2018-11-02T11:55:22.290Z,3.63
2018-11-02T11:57:52.058Z,3.50
2018-11-02T12:00:22.689Z,3.93
2018-11-02T12:02:52.743Z,3.63
2018-11-02T12:05:23.354Z,3.77
2018-11-02T12:07:52.629Z,4.10
2018-11-02T12:10:24.404Z,4.30
2018-11-02T12:12:54.152Z,4.33
2018-11-02T12:15:24.341Z,2.67
2018-11-02T12:17:53.925Z,4.30
2018-11-02T12:20:25.668Z,11.47
2018-11-02T12:22:56.418Z,5.97
2018-11-02T12:25:25.664Z,5.50
2018-11-02T12:27:55.287Z,3.87
2018-11-02T12:30:24.699Z,3.97
2018-11-02T12:32:54.071Z,3.40
2018-11-02T12:35:23.605Z,3.40
2018-11-02T12:37:53.946Z,2.90
2018-11-02T12:40:24.377Z,2.63
2018-11-02T12:42:55.339Z,2.50
2018-11-02T12:45:24.953Z,2.80
2018-11-02T12:47:54.509Z,3.70
2018-11-02T12:50:26.089Z,2.43
2018-11-02T12:52:57.774Z,2.93
2018-11-02T12:55:27.176Z,4.90
2018-11-02T12:57:56.683Z,7.70
2018-11-02T13:00:27.175Z,8.67
2018-11-02T13:02:56.649Z,6.83
2018-11-02T13:05:26.042Z,7.17
2018-11-02T13:07:55.379Z,6.23
2018-11-02T13:10:25.039Z,6.20
2018-11-02T13:12:54.492Z,5.40
2018-11-02T13:15:24.599Z,3.90
2018-11-02T13:17:53.885Z,3.00
2018-11-02T13:20:23.330Z,2.70
2018-11-02T13:22:52.754Z,2.93
2018-11-02T13:25:22.763Z,2.30
2018-11-02T13:27:52.523Z,2.20
2018-11-02T13:30:22.232Z,2.83
2018-11-02T13:32:51.503Z,2.10
2018-11-02T13:35:21.228Z,2.50
2018-11-02T13:37:51.178Z,3.20
2018-11-02T13:40:20.709Z,3.07
2018-11-02T13:42:51.162Z,1.70
2018-11-02T13:45:20.772Z,2.57
2018-11-02T13:47:50.710Z,1.93
2018-11-02T13:50:20.163Z,2.50
2018-11-02T13:52:50.180Z,2.87
2018-11-02T13:55:19.624Z,2.43
2018-11-02T13:57:48.959Z,2.43
2018-11-02T14:00:19.151Z,2.40
2018-11-02T14:02:48.485Z,1.70
2018-11-02T14:05:18.777Z,2.00
2018-11-02T14:07:48.192Z,2.40
2018-11-02T14:10:17.966Z,2.90
2018-11-02T14:12:48.097Z,3.60
2018-11-02T14:15:18.185Z,3.37
2018-11-02T14:17:47.710Z,2.40
2018-11-02T14:20:17.129Z,2.00
2018-11-02T14:22:46.587Z,3.37
2018-11-02T14:25:18.016Z,22.00
2018-11-02T14:27:48.601Z,9.40
2018-11-02T14:30:18.378Z,9.20
2018-11-02T14:32:48.537Z,2.50
2018-11-02T14:35:18.551Z,3.23
2018-11-02T14:37:48.102Z,2.60
2018-11-02T14:40:17.538Z,3.80
2018-11-02T14:42:47.104Z,4.00
2018-11-02T14:45:16.949Z,3.93
2018-11-02T14:47:47.247Z,3.27
2018-11-02T14:50:17.589Z,3.00
2018-11-02T14:52:47.628Z,2.50
2018-11-02T14:55:17.182Z,2.73
2018-11-02T14:57:46.713Z,4.40
2018-11-02T15:00:16.302Z,3.83
2018-11-02T15:02:45.857Z,2.23
2018-11-02T15:05:15.408Z,2.10
2018-11-02T15:07:45.658Z,1.37
2018-11-02T15:10:16.263Z,2.20
2018-11-02T15:12:45.859Z,2.63
2018-11-02T15:15:15.333Z,2.20
2018-11-02T15:17:44.719Z,3.07
2018-11-02T15:20:15.155Z,2.27
2018-11-02T15:22:44.786Z,2.03
2018-11-02T15:25:14.195Z,2.90
2018-11-02T15:27:44.358Z,1.87
2018-11-02T15:30:15.345Z,1.70
2018-11-02T15:32:45.555Z,2.03
2018-11-02T15:35:15.104Z,1.57
2018-11-02T15:37:45.777Z,1.97
2018-11-02T15:40:15.221Z,1.67
2018-11-02T15:42:44.800Z,1.50
2018-11-02T15:45:15.714Z,2.70
2018-11-02T15:47:46.038Z,3.40
2018-11-02T15:50:15.525Z,2.40
2018-11-02T15:52:45.339Z,4.17
2018-11-02T15:55:14.850Z,6.37
2018-11-02T15:57:45.354Z,4.67
2018-11-02T16:00:17.405Z,6.70
2018-11-02T16:02:47.922Z,4.53
2018-11-02T16:05:17.195Z,2.43
2018-11-02T16:07:46.694Z,2.13
2018-11-02T16:10:16.602Z,1.70
2018-11-02T16:12:46.005Z,2.83
2018-11-02T16:15:15.958Z,2.50
2018-11-02T16:17:45.612Z,2.77
2018-11-02T16:20:15.897Z,2.63
2018-11-02T16:22:45.717Z,2.73
2018-11-02T16:25:15.272Z,2.70
2018-11-02T16:27:44.749Z,3.00
2018-11-02T16:30:14.356Z,3.23
2018-11-02T16:32:43.664Z,3.30
2018-11-02T16:35:13.435Z,3.90
2018-11-02T16:37:42.720Z,3.40
2018-11-02T16:40:13.916Z,3.43
2018-11-02T16:42:44.102Z,3.13
2018-11-02T16:45:14.552Z,8.20
2018-11-02T16:47:44.518Z,5.23
2018-11-02T16:50:15.243Z,2.97
2018-11-02T16:52:45.017Z,4.30
2018-11-02T16:55:14.612Z,3.73
2018-11-02T16:57:44.300Z,2.80
2018-11-02T17:00:16.133Z,4.37
2018-11-02T17:02:46.737Z,2.53
2018-11-02T17:05:16.447Z,3.20
2018-11-02T17:07:46.661Z,2.37
2018-11-02T17:10:16.546Z,1.60
2018-11-02T17:12:46.076Z,1.80
2018-11-02T17:15:15.582Z,1.60
2018-11-02T17:17:45.083Z,1.60
2018-11-02T17:20:15.785Z,2.07
2018-11-02T17:22:45.642Z,3.33
2018-11-02T17:25:15.195Z,3.13
2018-11-02T17:27:44.758Z,2.57
2018-11-02T17:30:15.365Z,2.97
2018-11-02T17:32:44.681Z,3.30
2018-11-02T17:35:15.108Z,7.10
2018-11-02T17:37:44.516Z,8.37
2018-11-02T17:40:15.148Z,5.80
2018-11-02T17:42:45.226Z,4.83
2018-11-02T17:45:14.843Z,6.37
2018-11-02T17:47:45.398Z,6.23
2018-11-02T17:50:16.797Z,6.90
2018-11-02T17:52:47.213Z,8.20
2018-11-02T17:55:16.672Z,14.33
2018-11-02T17:57:46.145Z,8.33
2018-11-02T18:00:16.288Z,7.87
2018-11-02T18:02:45.634Z,8.60
2018-11-02T18:05:15.190Z,8.73
2018-11-02T18:07:44.639Z,6.40
2018-11-02T18:10:14.518Z,16.80
2018-11-02T18:12:43.996Z,8.00
2018-11-02T18:15:13.962Z,8.90
2018-11-02T18:17:43.301Z,9.13
2018-11-02T18:20:14.592Z,8.33
2018-11-02T18:22:44.485Z,8.20
2018-11-02T18:25:14.343Z,7.83
2018-11-02T18:27:44.295Z,8.27
2018-11-02T18:30:14.247Z,8.50
2018-11-02T18:32:44.041Z,7.43
2018-11-02T18:35:13.438Z,8.13
2018-11-02T18:37:43.590Z,10.00
2018-11-02T18:40:13.974Z,7.30
2018-11-02T18:42:44.034Z,8.70
2018-11-02T18:45:14.622Z,9.93
2018-11-02T18:47:44.583Z,14.47
2018-11-02T18:50:16.108Z,12.37
2018-11-02T18:52:46.568Z,15.03
2018-11-02T18:55:16.220Z,13.87
2018-11-02T18:57:45.994Z,14.80
2018-11-02T19:00:15.815Z,11.83
2018-11-02T19:02:45.578Z,14.57
2018-11-02T19:05:17.099Z,12.97
2018-11-02T19:07:46.480Z,12.50
2018-11-02T19:10:15.907Z,11.97
2018-11-02T19:12:45.874Z,11.17
2018-11-02T19:15:19.519Z,14.40
2018-11-02T19:17:49.990Z,13.67
2018-11-02T19:20:19.725Z,14.00
2018-11-02T19:22:49.477Z,12.90
2018-11-02T19:25:19.232Z,13.00
2018-11-02T19:27:49.481Z,12.50
2018-11-02T19:30:19.210Z,13.43
2018-11-02T19:32:48.779Z,11.53
2018-11-02T19:35:18.654Z,11.70
2018-11-02T19:37:48.006Z,13.10
2018-11-02T19:40:19.224Z,22.47
2018-11-02T19:42:49.008Z,24.77
2018-11-02T19:45:18.523Z,18.63
2018-11-02T19:47:55.488Z,21.07
2018-11-02T19:50:24.897Z,16.43
2018-11-02T19:52:55.984Z,11.83
2018-11-02T19:55:25.885Z,13.47
2018-11-02T19:57:55.470Z,13.40
2018-11-02T20:00:24.952Z,12.23
2018-11-02T20:02:54.506Z,13.13
2018-11-02T20:05:24.325Z,12.73
2018-11-02T20:07:54.573Z,11.57
2018-11-02T20:10:25.205Z,10.23
2018-11-02T20:12:54.726Z,12.00
2018-11-02T20:15:25.245Z,9.73
2018-11-02T20:17:55.155Z,8.27
2018-11-02T20:20:25.624Z,9.23
2018-11-02T20:22:55.304Z,10.60
2018-11-02T20:25:25.090Z,10.10
2018-11-02T20:27:56.209Z,11.50
2018-11-02T20:30:26.373Z,9.90
2018-11-02T20:32:56.178Z,9.70
2018-11-02T20:35:25.773Z,14.57
2018-11-02T20:37:55.386Z,13.67
2018-11-02T20:40:24.893Z,11.47
2018-11-02T20:42:54.377Z,11.63
2018-11-02T20:45:23.881Z,9.70
2018-11-02T20:47:54.702Z,10.23
2018-11-02T20:50:25.261Z,10.20
2018-11-02T20:52:54.816Z,7.47
2018-11-02T20:55:24.436Z,8.33
2018-11-02T20:57:53.999Z,7.30
2018-11-02T21:00:25.001Z,8.27
2018-11-02T21:02:54.749Z,7.83
2018-11-02T21:05:24.412Z,10.30
2018-11-02T21:07:55.566Z,9.63
2018-11-02T21:10:25.173Z,10.50
2018-11-02T21:12:54.659Z,13.07
2018-11-02T21:15:25.221Z,12.50
2018-11-02T21:17:54.978Z,14.80
2018-11-02T21:20:26.781Z,13.23
2018-11-02T21:22:57.498Z,15.43
2018-11-02T21:25:28.179Z,16.57
2018-11-02T21:27:58.357Z,17.83
2018-11-02T21:30:29.265Z,16.60
2018-11-02T21:32:59.194Z,16.03
2018-11-02T21:35:28.784Z,16.50
2018-11-02T21:37:58.472Z,16.03
2018-11-02T21:40:28.133Z,16.47
2018-11-02T21:42:57.516Z,17.67
2018-11-02T21:45:26.947Z,17.00
2018-11-02T21:47:56.333Z,17.50
2018-11-02T21:50:25.854Z,15.70
2018-11-02T21:52:55.364Z,19.87
2018-11-02T21:55:24.792Z,17.93
2018-11-02T21:57:54.209Z,17.00
2018-11-02T22:00:23.999Z,14.70
2018-11-02T22:02:53.464Z,16.97
2018-11-02T22:05:23.035Z,16.57
2018-11-02T22:07:53.523Z,16.77
2018-11-02T22:10:22.896Z,15.17
2018-11-02T22:12:52.445Z,14.07
2018-11-02T22:15:21.927Z,13.30
2018-11-02T22:17:51.259Z,13.00
2018-11-02T22:20:21.026Z,13.70
2018-11-02T22:22:50.424Z,11.70
2018-11-02T22:25:19.899Z,13.47
2018-11-02T22:27:49.299Z,11.80
2018-11-02T22:30:18.867Z,12.50
2018-11-02T22:32:48.184Z,11.70
2018-11-02T22:35:17.506Z,12.27
2018-11-02T22:37:46.974Z,11.37
2018-11-02T22:40:16.626Z,10.80
2018-11-02T22:42:46.044Z,12.30
2018-11-02T22:45:16.178Z,11.90
2018-11-02T22:47:50.693Z,10.67
2018-11-02T22:50:19.836Z,11.00
2018-11-02T22:52:49.393Z,12.60
2018-11-02T22:55:18.904Z,12.87
2018-11-02T22:57:48.350Z,13.97
2018-11-02T23:00:19.119Z,13.57
2018-11-02T23:02:49.248Z,13.40
2018-11-02T23:05:19.093Z,13.17
2018-11-02T23:07:48.644Z,13.10
2018-11-02T23:10:17.760Z,15.47
2018-11-02T23:12:46.887Z,14.90
2018-11-02T23:15:16.545Z,15.10
2018-11-02T23:17:46.467Z,14.30
2018-11-02T23:20:15.963Z,15.63
2018-11-02T23:22:45.327Z,14.87
2018-11-02T23:25:14.727Z,13.53
2018-11-02T23:27:45.148Z,10.90
2018-11-02T23:30:14.660Z,11.47
2018-11-02T23:32:44.038Z,11.60
2018-11-02T23:35:14.170Z,11.23
2018-11-02T23:37:44.210Z,12.63
2018-11-02T23:40:13.938Z,13.20
2018-11-02T23:42:43.338Z,13.60
2018-11-02T23:45:13.007Z,12.50
2018-11-02T23:48:48.071Z,12.73
2018-11-02T23:51:17.396Z,12.17
2018-11-02T23:53:46.753Z,13.33
2018-11-02T23:56:16.295Z,11.17
2018-11-02T23:58:45.767Z,12.13
